Terminal Aerodrome Forecast
Issued by NWS

Home | Current Version | Previous Version | Text Only | Print | Product List | Glossary On
Versions: 1 2 3 4 5 6 7 8 9 10 11 12 13 14 15 16
726
FTUS45 KVEF 301737
TAFEED
TAF
KEED 301737Z 3018/0118 35015G24KT P6SM VCSH SCT050 BKN080
     FM010300 02009KT P6SM SCT060 BKN120=

USA.gov is the U.S. government's official web portal to all federal, state and local government web resources and services.